OMAD/AZI METAR and TAF weather

Enter ICAO airport designator
Station Type Date Time Source
OMAD METAR 2019/10/22 17:00 UTC NOAA

OMAD 221700Z 35006KT 320V020 6000 NSC 30/26 Q1011 BECMG 06006KT


Station Type Date Time Source
OMAD Decoded METAR 2019/10/22 17:00 UTC NOAA

Abu Dhabi Bateen Airport, United Arab Emirates (OMAD) 24-26N 054-28E 3M
Oct 22, 2019 - 01:00 PM EDT / 2019.10.22 1700 UTC
Wind: from the N (350 degrees) at 7 MPH (6 KT) (direction variable):0
Visibility: 3 mile(s):0
Temperature: 86 F (30 C)
Heat index: 99.3 F (37.4 C):1
Dew Point: 78 F (26 C)
Relative Humidity: 79%
Pressure (altimeter): 29.85 in. Hg (1011 hPa)
ob: OMAD 221700Z 35006KT 320V020 6000 NSC 30/26 Q1011 BECMG 06006KT
cycle: 17

Station Type Date Time Source
OMAD TAF 2019/10/22 18:00 UTC NOAA

TAF OMAD 221700Z 2218/2400 36006KT 7000 NSC
BECMG 2218/2220 08004KT PROB40 2221/2305 4000 HZ PROB30
TEMPO 2301/2304 2000 BR BKN008
BECMG 2308/2310 34010KT
BECMG 2318/2320 06005KT

Example: see airport list